Time;durP1;ratioP1;P1;durP2;ratioP2;P2;SDS_P1;SDS_P2;PMS_P1;PMS_P2;Temp;Humidity;BMP_temperature;BMP_pressure;BME280_temperature;BME280_humidity;BME280_pressure;Samples;Min_cycle;Max_cycle;Signal;HPM_P1;HPM_P2
2022/12/17 13:06:53;;;;;;;84.07;36.95;;;0.60;99.90;;;;;;5022855;28;20063;-67
2022/12/17 13:09:36;;;;;;;83.47;37.60;;;0.60;99.90;;;;;;5048013;28;20081;-67
2022/12/17 13:12:01;;;;;;;77.88;35.63;;;0.50;99.90;;;;;;5059727;28;20048;-67
2022/12/17 13:14:32;;;;;;;77.28;34.70;;;0.40;99.90;;;;;;5049713;28;20642;-64
2022/12/17 13:17:03;;;;;;;77.25;37.05;;;0.40;99.90;;;;;;5073320;28;20101;-69
2022/12/17 13:19:36;;;;;;;78.72;36.40;;;0.40;99.90;;;;;;5036804;28;20136;-64
2022/12/17 13:22:09;;;;;;;81.72;36.22;;;0.40;99.90;;;;;;5063790;28;20052;-64
2022/12/17 13:24:34;;;;;;;80.38;34.95;;;0.40;99.90;;;;;;5064837;28;20094;-67
2022/12/17 13:27:00;;;;;;;83.60;38.35;;;0.40;99.90;;;;;;5042403;28;20052;-66
2022/12/17 13:29:36;;;;;;;81.40;37.45;;;0.40;99.90;;;;;;5046671;28;20048;-67
2022/12/17 13:32:04;;;;;;;80.43;35.53;;;0.50;99.90;;;;;;5058770;28;20115;-68
2022/12/17 13:34:50;;;;;;;76.45;34.15;;;0.40;99.90;;;;;;5040490;28;20077;-68
2022/12/17 13:37:44;;;;;;;77.47;34.72;;;0.40;99.90;;;;;;5061560;28;20120;-67
2022/12/17 13:40:21;;;;;;;74.25;34.63;;;0.30;99.90;;;;;;5045379;28;20071;-67
2022/12/17 13:42:47;;;;;;;79.38;34.85;;;0.30;99.90;;;;;;5053339;28;20049;-67
2022/12/17 13:45:20;;;;;;;73.53;35.72;;;0.30;99.90;;;;;;5065042;28;20048;-65
2022/12/17 13:47:57;;;;;;;80.05;35.17;;;0.20;99.90;;;;;;5058349;28;20387;-68
2022/12/17 13:50:26;;;;;;;79.00;33.80;;;0.10;99.90;;;;;;5039569;28;20049;-65
2022/12/17 13:52:52;;;;;;;75.75;32.50;;;0.20;99.90;;;;;;5054490;28;20056;-68
2022/12/17 13:55:24;;;;;;;77.53;33.08;;;0.40;99.90;;;;;;5040287;28;20059;-68
2022/12/17 13:57:52;;;;;;;80.60;35.47;;;0.20;99.90;;;;;;5054558;28;20044;-68
2022/12/17 14:00:26;;;;;;;80.63;35.88;;;0.30;99.90;;;;;;5039625;28;20068;-68
2022/12/17 14:02:53;;;;;;;80.35;35.67;;;0.30;99.90;;;;;;5053795;28;20078;-68
2022/12/17 14:05:48;;;;;;;83.50;37.58;;;0.20;99.90;;;;;;5049934;28;20041;-68
2022/12/17 14:08:19;;;;;;;83.28;37.15;;;0.30;99.90;;;;;;5038237;28;20140;-68
2022/12/17 14:12:20;;;;;;;75.80;33.78;;;0.30;99.90;;;;;;5045665;28;20068;-68
2022/12/17 14:13:39;;;;;;;79.47;35.78;;;0.40;99.90;;;;;;5061105;28;20055;-68
2022/12/17 14:16:06;;;;;;;79.05;34.88;;;0.20;99.90;;;;;;5040617;28;20057;-68
2022/12/17 14:18:31;;;;;;;79.65;35.90;;;0.10;99.90;;;;;;5055492;28;20080;-68
2022/12/17 14:20:57;;;;;;;83.03;34.47;;;0.10;99.90;;;;;;5038665;28;20049;-68
2022/12/17 14:23:28;;;;;;;84.53;35.90;;;0.10;99.90;;;;;;5060612;28;20052;-68
2022/12/17 14:25:55;;;;;;;79.38;34.38;;;0.20;99.90;;;;;;5038825;28;20048;-68
2022/12/17 14:28:28;;;;;;;80.82;33.70;;;0.20;99.90;;;;;;5060863;28;20056;-68
2022/12/17 14:31:14;;;;;;;80.47;35.80;;;0.10;99.90;;;;;;5040266;28;20049;-68
2022/12/17 14:33:42;;;;;;;75.82;33.20;;;0.10;99.90;;;;;;5043668;28;20048;-67
2022/12/17 14:36:20;;;;;;;74.63;32.97;;;0.20;99.90;;;;;;5040217;28;20056;-65
2022/12/17 14:39:00;;;;;;;75.22;32.42;;;0.10;99.90;;;;;;5055250;28;20045;-66
2022/12/17 14:44:26;;;;;;;81.65;33.65;;;-0.10;99.90;;;;;;5054751;28;20412;-68
2022/12/17 14:47:06;;;;;;;80.90;34.17;;;-0.10;99.90;;;;;;5030092;28;20426;-69
2022/12/17 14:49:32;;;;;;;87.63;35.53;;;0.00;99.90;;;;;;5040673;28;20428;-69
2022/12/17 14:51:58;;;;;;;83.53;33.63;;;-0.10;99.90;;;;;;5053291;28;20047;-68
2022/12/17 14:54:31;;;;;;;92.93;36.67;;;-0.10;99.90;;;;;;5039841;28;20048;-66
2022/12/17 14:56:58;;;;;;;87.93;33.78;;;-0.10;99.90;;;;;;5064064;28;20071;-67
2022/12/17 14:59:36;;;;;;;91.40;35.83;;;0.10;99.90;;;;;;5042612;28;20066;-69
2022/12/17 15:02:07;;;;;;;83.38;31.58;;;0.10;99.90;;;;;;5041232;28;20064;-69
2022/12/17 15:04:36;;;;;;;84.07;30.98;;;0.00;99.90;;;;;;5046733;28;20043;-65
2022/12/17 15:07:02;;;;;;;79.90;31.58;;;-0.10;99.90;;;;;;5051567;28;20483;-67
2022/12/17 15:09:28;;;;;;;86.95;31.85;;;-0.20;99.90;;;;;;5041093;28;20419;-67
2022/12/17 15:11:54;;;;;;;80.75;31.70;;;0.00;99.90;;;;;;5036442;28;20064;-66
2022/12/17 15:14:19;;;;;;;82.97;32.20;;;0.00;99.90;;;;;;5054912;28;20061;-69
2022/12/17 15:16:45;;;;;;;79.78;31.17;;;0.00;99.90;;;;;;5041255;28;20048;-65
2022/12/17 15:19:11;;;;;;;81.93;31.55;;;-0.10;99.90;;;;;;5074704;28;20525;-67
2022/12/17 15:21:36;;;;;;;81.72;30.48;;;-0.20;99.90;;;;;;5063897;28;20452;-66
2022/12/17 15:24:03;;;;;;;80.15;28.80;;;-0.40;99.90;;;;;;5061832;28;20037;-66
2022/12/17 15:26:28;;;;;;;77.90;29.33;;;-0.40;99.90;;;;;;5031715;28;20120;-67
2022/12/17 15:28:54;;;;;;;88.20;33.72;;;-0.40;99.90;;;;;;5047787;28;20065;-65
2022/12/17 15:31:20;;;;;;;84.95;32.55;;;-0.40;99.90;;;;;;5045151;28;20056;-66
2022/12/17 15:33:45;;;;;;;86.18;32.42;;;-0.40;99.90;;;;;;5049597;28;20067;-66
2022/12/17 15:36:11;;;;;;;81.40;31.42;;;-0.50;99.90;;;;;;5034481;28;20056;-66
2022/12/17 15:38:38;;;;;;;88.60;32.90;;;-0.50;99.90;;;;;;5052980;28;20049;-66
2022/12/17 15:43:09;;;;;;;90.72;30.70;;;-0.50;99.90;;;;;;5035586;28;20088;-66
2022/12/17 15:43:51;;;;;;;90.68;32.20;;;-0.50;99.90;;;;;;5053871;28;20068;-66
2022/12/17 15:46:17;;;;;;;87.60;31.98;;;-0.30;99.90;;;;;;5043368;28;20057;-66
2022/12/17 15:48:42;;;;;;;93.70;31.65;;;-0.30;99.90;;;;;;5051264;28;20050;-66
2022/12/17 15:51:08;;;;;;;85.85;34.20;;;-0.50;99.90;;;;;;5039595;28;20063;-66
2022/12/17 15:53:34;;;;;;;98.13;36.85;;;-0.50;99.90;;;;;;5046149;28;20036;-65
2022/12/17 15:56:03;;;;;;;78.65;30.70;;;-0.50;99.90;;;;;;5042530;28;20529;-64
2022/12/17 15:58:29;;;;;;;85.68;30.05;;;-0.30;99.90;;;;;;5062395;28;20051;-64
2022/12/17 16:00:55;;;;;;;85.70;30.13;;;-0.40;99.90;;;;;;5042469;28;20057;-64
2022/12/17 16:03:21;;;;;;;80.15;31.17;;;-0.80;99.90;;;;;;5065271;28;20048;-65
2022/12/17 16:05:46;;;;;;;79.63;29.15;;;-0.90;99.90;;;;;;5047116;28;20068;-65
2022/12/17 16:08:12;;;;;;;86.13;30.13;;;-1.00;99.90;;;;;;5053587;28;20403;-65
2022/12/17 16:10:38;;;;;;;85.13;30.38;;;-0.90;99.90;;;;;;5062920;28;20033;-64
2022/12/17 16:13:04;;;;;;;90.82;31.17;;;-0.90;99.90;;;;;;5056045;28;20044;-67
2022/12/17 16:15:30;;;;;;;88.85;30.42;;;-0.90;99.90;;;;;;5046220;28;20055;-67
2022/12/17 16:17:56;;;;;;;86.15;30.27;;;-0.90;99.90;;;;;;5052477;28;20048;-67
2022/12/17 16:20:22;;;;;;;88.32;31.95;;;-0.90;99.90;;;;;;5035443;28;20061;-66
2022/12/17 16:22:48;;;;;;;90.10;31.05;;;-0.80;99.90;;;;;;5059143;28;20037;-67
2022/12/17 16:25:14;;;;;;;90.88;31.65;;;-0.90;99.90;;;;;;5051120;28;20613;-67
2022/12/17 16:27:40;;;;;;;84.80;32.80;;;-0.90;99.90;;;;;;5041766;28;20055;-67
2022/12/17 16:30:06;;;;;;;93.75;32.92;;;-1.00;99.90;;;;;;5064659;28;20072;-67
2022/12/17 16:32:32;;;;;;;95.30;34.35;;;-1.00;99.90;;;;;;5054134;28;20040;-67
2022/12/17 16:34:58;;;;;;;96.63;33.50;;;-1.00;99.90;;;;;;5063019;28;20040;-64
2022/12/17 16:37:24;;;;;;;92.97;34.33;;;-1.00;99.90;;;;;;5061175;28;20044;-66
2022/12/17 16:39:50;;;;;;;94.57;32.25;;;-1.10;99.90;;;;;;5047834;28;20052;-67
2022/12/17 16:42:16;;;;;;;96.55;34.15;;;-1.00;99.90;;;;;;5058098;28;20063;-65
2022/12/17 16:44:42;;;;;;;102.90;33.83;;;-1.10;99.90;;;;;;5061781;28;20063;-63
2022/12/17 16:47:09;;;;;;;96.97;34.53;;;-1.20;99.90;;;;;;5049402;28;20421;-65
2022/12/17 16:49:35;;;;;;;98.28;34.90;;;-1.10;99.90;;;;;;5048628;28;20045;-63
2022/12/17 16:52:02;;;;;;;102.50;37.25;;;-1.00;99.90;;;;;;5058930;28;20407;-63
2022/12/17 16:54:31;;;;;;;98.50;34.30;;;-1.00;99.90;;;;;;5053113;28;20137;-63
2022/12/17 16:57:00;;;;;;;98.45;37.67;;;-1.00;99.90;;;;;;5046642;28;20084;-64
2022/12/17 16:59:26;;;;;;;109.95;42.10;;;-1.10;99.90;;;;;;5055622;28;20072;-63
2022/12/17 17:01:52;;;;;;;97.97;36.60;;;-1.00;99.90;;;;;;5049678;28;20056;-63
2022/12/17 17:04:21;;;;;;;96.45;36.65;;;-0.90;99.90;;;;;;5055190;28;20111;-61
2022/12/17 17:06:49;;;;;;;98.00;34.92;;;-0.80;99.90;;;;;;5025241;28;20061;-61
2022/12/17 17:09:16;;;;;;;101.72;40.22;;;-0.90;99.90;;;;;;5049784;28;20416;-61
2022/12/17 17:11:42;;;;;;;93.70;35.97;;;-0.80;99.90;;;;;;5022421;28;20072;-61
2022/12/17 17:14:09;;;;;;;106.38;40.58;;;-0.80;99.90;;;;;;5043581;28;20060;-60
2022/12/17 17:16:35;;;;;;;97.95;39.00;;;-0.80;99.90;;;;;;5057332;28;20045;-61
2022/12/17 17:19:01;;;;;;;99.32;38.13;;;-1.00;99.90;;;;;;5069189;28;20386;-60
2022/12/17 17:21:28;;;;;;;94.60;39.35;;;-0.90;99.90;;;;;;5057789;28;20048;-61
2022/12/17 17:24:00;;;;;;;102.95;38.50;;;-0.80;99.90;;;;;;5064328;28;20063;-61
2022/12/17 17:26:30;;;;;;;94.25;36.08;;;-0.90;99.90;;;;;;5040423;28;20565;-63
2022/12/17 17:28:57;;;;;;;97.68;37.40;;;-0.90;99.90;;;;;;5049243;28;20277;-66
2022/12/17 17:31:23;;;;;;;105.50;40.83;;;-0.90;99.90;;;;;;5026445;28;20716;-65
2022/12/17 17:33:51;;;;;;;93.97;37.28;;;-0.70;99.90;;;;;;5040003;28;20110;-67
2022/12/17 17:36:28;;;;;;;104.28;40.13;;;-0.70;99.90;;;;;;5056678;28;20057;-66
2022/12/17 17:38:57;;;;;;;106.78;43.15;;;-0.80;99.90;;;;;;5032091;28;20467;-64
2022/12/17 17:41:25;;;;;;;88.85;37.17;;;-0.80;99.90;;;;;;5045412;28;20053;-64
2022/12/17 17:44:06;;;;;;;82.97;36.22;;;-0.80;99.90;;;;;;5053459;28;20040;-64
2022/12/17 17:46:32;;;;;;;81.60;35.38;;;-0.60;99.90;;;;;;5033196;28;20123;-64
2022/12/17 17:48:59;;;;;;;83.50;37.35;;;-0.70;99.90;;;;;;5069935;28;20810;-64
2022/12/17 17:51:28;;;;;;;83.00;34.30;;;-0.90;99.90;;;;;;5028788;28;20079;-64
2022/12/17 17:53:54;;;;;;;85.05;37.05;;;-0.90;99.90;;;;;;5054719;28;20045;-64
2022/12/17 17:56:26;;;;;;;82.93;37.67;;;-0.90;99.90;;;;;;5061149;28;20460;-64
2022/12/17 17:59:14;;;;;;;85.43;38.20;;;-1.00;99.90;;;;;;5049512;28;20037;-64
2022/12/17 18:01:42;;;;;;;93.07;40.15;;;-1.10;99.90;;;;;;5039800;28;20040;-64
2022/12/17 18:04:11;;;;;;;96.30;39.03;;;-1.00;99.90;;;;;;5055192;28;20048;-64
2022/12/17 18:06:41;;;;;;;91.70;39.83;;;-1.10;99.90;;;;;;5052289;28;20128;-64
2022/12/17 18:09:08;;;;;;;96.85;42.15;;;-1.20;99.90;;;;;;5054006;28;20072;-64
2022/12/17 18:11:35;;;;;;;99.57;40.92;;;-1.30;99.90;;;;;;5059587;28;20125;-64
2022/12/17 18:14:03;;;;;;;106.63;41.65;;;-1.20;99.90;;;;;;5053826;28;20052;-64
2022/12/17 18:16:35;;;;;;;100.10;40.95;;;-1.30;99.90;;;;;;5044012;28;20147;-64
2022/12/17 18:19:04;;;;;;;103.97;44.08;;;-1.30;99.90;;;;;;5054307;28;20044;-64
2022/12/17 18:21:31;;;;;;;97.03;42.78;;;-1.30;99.90;;;;;;5028151;28;20049;-64
2022/12/17 18:24:06;;;;;;;102.45;44.03;;;-1.30;99.90;;;;;;5049162;28;20811;-64
2022/12/17 18:26:36;;;;;;;99.97;43.30;;;-1.30;99.90;;;;;;5041165;28;20056;-64
2022/12/17 18:29:07;;;;;;;103.40;45.83;;;-1.10;99.90;;;;;;5040736;28;20118;-64
2022/12/17 18:31:32;;;;;;;100.97;44.53;;;-1.10;99.90;;;;;;5037332;28;20052;-64
2022/12/17 18:34:00;;;;;;;105.78;44.83;;;-1.00;99.90;;;;;;5067253;28;20105;-64
2022/12/17 18:36:29;;;;;;;103.18;45.25;;;-1.10;99.90;;;;;;5042659;28;20056;-64
2022/12/17 18:39:00;;;;;;;123.25;50.10;;;-1.00;99.90;;;;;;5049697;28;20104;-64
2022/12/17 18:44:12;;;;;;;106.38;43.70;;;-1.10;99.90;;;;;;5072236;28;20060;-64
2022/12/17 18:46:38;;;;;;;101.18;44.70;;;-1.00;99.90;;;;;;5047177;28;20056;-64
2022/12/17 18:49:08;;;;;;;100.15;43.42;;;-0.90;99.90;;;;;;5053066;28;20394;-64
2022/12/17 18:51:35;;;;;;;98.20;43.15;;;-0.80;99.90;;;;;;5039023;28;20063;-65
2022/12/17 18:54:03;;;;;;;104.57;46.40;;;-0.90;99.90;;;;;;5050004;28;20059;-63
2022/12/17 18:56:29;;;;;;;100.50;43.40;;;-1.10;99.90;;;;;;5047485;28;20147;-66
2022/12/17 18:58:55;;;;;;;109.97;46.72;;;-1.20;99.90;;;;;;5070930;28;20076;-64
2022/12/17 19:01:30;;;;;;;110.00;46.10;;;-1.20;99.90;;;;;;5032568;28;20045;-64
2022/12/17 19:03:56;;;;;;;112.28;45.75;;;-1.30;99.90;;;;;;5066178;28;20108;-64
2022/12/17 19:06:23;;;;;;;99.55;43.88;;;-1.40;99.90;;;;;;5056329;28;20094;-64
2022/12/17 19:08:50;;;;;;;113.03;48.65;;;-1.30;99.90;;;;;;5046814;28;20509;-64
2022/12/17 19:11:18;;;;;;;108.13;45.28;;;-1.30;99.90;;;;;;5036668;28;20116;-64
2022/12/17 19:13:44;;;;;;;101.63;43.60;;;-1.30;99.90;;;;;;5055215;28;20040;-64
2022/12/17 19:16:17;;;;;;;99.72;44.10;;;-1.10;99.90;;;;;;5027737;28;20186;-64
2022/12/17 19:18:43;;;;;;;103.97;43.30;;;-1.20;99.90;;;;;;5048165;28;20072;-65
2022/12/17 19:21:13;;;;;;;107.90;45.15;;;-1.30;99.90;;;;;;5038291;28;20044;-64
2022/12/17 19:23:39;;;;;;;105.40;47.53;;;-1.30;99.90;;;;;;5047950;28;20656;-64
2022/12/17 19:26:12;;;;;;;106.00;45.28;;;-1.40;99.90;;;;;;5041831;28;20597;-64
2022/12/17 19:28:45;;;;;;;104.88;45.60;;;-1.30;99.90;;;;;;5045552;28;20048;-64
2022/12/17 19:31:12;;;;;;;108.72;45.10;;;-1.20;99.90;;;;;;5034930;28;20061;-64
2022/12/17 19:33:38;;;;;;;103.90;45.28;;;-1.10;99.90;;;;;;5063992;28;20036;-63
2022/12/17 19:36:07;;;;;;;105.80;45.40;;;-1.30;99.90;;;;;;5038486;28;20067;-64
2022/12/17 19:38:33;;;;;;;113.68;48.10;;;-1.30;99.90;;;;;;5053951;28;20063;-64
2022/12/17 19:41:07;;;;;;;106.00;45.50;;;-1.20;99.90;;;;;;5053203;28;20041;-64
2022/12/17 19:43:32;;;;;;;116.82;47.95;;;-1.20;99.90;;;;;;5043865;28;20084;-64
2022/12/17 19:46:12;;;;;;;101.20;41.92;;;-1.30;99.90;;;;;;5047092;28;20048;-64
2022/12/17 19:48:39;;;;;;;102.50;42.78;;;-1.30;99.90;;;;;;5039922;28;20041;-64
2022/12/17 19:51:07;;;;;;;103.40;43.05;;;-1.20;99.90;;;;;;5039303;28;20075;-64
2022/12/17 19:53:35;;;;;;;114.15;46.47;;;-1.20;99.90;;;;;;5046784;28;20056;-64
2022/12/17 19:56:17;;;;;;;109.03;42.95;;;-1.30;99.90;;;;;;5040937;28;20410;-64
2022/12/17 19:58:44;;;;;;;109.50;46.25;;;-1.20;99.90;;;;;;5053239;28;20512;-64
2022/12/17 20:01:19;;;;;;;107.43;43.35;;;-1.30;99.90;;;;;;5041581;28;20084;-65
2022/12/17 20:03:45;;;;;;;111.25;43.65;;;-1.40;99.90;;;;;;5057460;28;20047;-65
2022/12/17 20:06:12;;;;;;;109.22;44.35;;;-1.40;99.90;;;;;;5054666;28;20057;-64
2022/12/17 20:08:38;;;;;;;102.75;44.20;;;-1.20;99.90;;;;;;5062141;28;20731;-64
2022/12/17 20:13:58;;;;;;;108.43;43.30;;;-1.20;99.90;;;;;;5048304;28;20083;-64
2022/12/17 20:16:25;;;;;;;109.95;42.53;;;-1.30;99.90;;;;;;5044491;28;20072;-64
2022/12/17 20:18:51;;;;;;;94.68;40.15;;;-1.40;99.90;;;;;;5052685;28;20263;-64
2022/12/17 20:21:17;;;;;;;94.97;39.38;;;-1.40;99.90;;;;;;5039240;28;20267;-64
2022/12/17 20:23:47;;;;;;;91.55;40.13;;;-1.30;99.90;;;;;;5055335;28;20045;-64
2022/12/17 20:26:14;;;;;;;104.38;41.95;;;-1.40;99.90;;;;;;5018268;28;20564;-64
2022/12/17 20:28:39;;;;;;;98.47;39.40;;;-1.60;99.90;;;;;;5037268;28;20049;-64
2022/12/17 20:31:05;;;;;;;104.95;42.88;;;-1.60;99.90;;;;;;5064200;28;20109;-64
2022/12/17 20:33:31;;;;;;;106.50;43.17;;;-1.60;99.90;;;;;;5065725;28;20041;-64
2022/12/17 20:36:04;;;;;;;111.40;45.20;;;-1.60;99.90;;;;;;5068916;28;20044;-64
2022/12/17 20:38:30;;;;;;;111.43;47.35;;;-1.50;99.90;;;;;;5062388;28;20063;-64
2022/12/17 20:40:55;;;;;;;106.43;43.42;;;-1.50;99.90;;;;;;5077306;28;20048;-64
2022/12/17 20:43:21;;;;;;;101.43;42.40;;;-1.40;99.90;;;;;;5064124;28;20084;-64
2022/12/17 20:45:55;;;;;;;96.32;40.30;;;-1.40;99.90;;;;;;5066009;28;20045;-63
2022/12/17 20:48:22;;;;;;;106.28;43.30;;;-1.50;99.90;;;;;;5066975;28;20060;-64
2022/12/17 20:50:48;;;;;;;97.85;40.30;;;-1.60;99.90;;;;;;5066828;28;20056;-64
2022/12/17 20:53:13;;;;;;;99.28;40.67;;;-1.50;99.90;;;;;;5056853;28;20049;-64
2022/12/17 20:55:39;;;;;;;95.97;39.90;;;-1.40;99.90;;;;;;5073356;28;20045;-64
2022/12/17 20:58:05;;;;;;;102.95;40.90;;;-1.40;99.90;;;;;;5050220;28;20072;-64
2022/12/17 21:00:32;;;;;;;101.82;43.83;;;-1.60;99.90;;;;;;5083335;28;20105;-64
2022/12/17 21:02:57;;;;;;;97.30;40.13;;;-1.60;99.90;;;;;;5062749;28;20056;-64
2022/12/17 21:05:24;;;;;;;109.18;43.55;;;-1.70;99.90;;;;;;5079601;28;20441;-64
2022/12/17 21:07:51;;;;;;;98.90;39.40;;;-1.70;99.90;;;;;;5079541;28;20037;-64
2022/12/17 21:10:17;;;;;;;97.07;40.38;;;-1.80;99.90;;;;;;5068141;28;20051;-64
2022/12/17 21:15:27;;;;;;;99.70;41.42;;;-1.90;99.90;;;;;;5072367;28;20063;-64
2022/12/17 21:17:53;;;;;;;106.22;42.53;;;-1.90;99.90;;;;;;5058878;28;20128;-64
2022/12/17 21:20:19;;;;;;;108.50;41.00;;;-1.80;99.90;;;;;;5056858;28;20079;-64
2022/12/17 21:22:44;;;;;;;108.65;43.47;;;-1.90;99.90;;;;;;5064589;28;20045;-64
2022/12/17 21:25:10;;;;;;;101.50;41.88;;;-2.00;99.90;;;;;;5067555;28;20052;-64
2022/12/17 21:27:36;;;;;;;108.35;43.53;;;-2.10;99.90;;;;;;5064766;28;20055;-64
2022/12/17 21:30:02;;;;;;;108.25;41.88;;;-2.10;99.90;;;;;;5056467;28;20472;-64
2022/12/17 21:32:28;;;;;;;102.82;41.38;;;-2.10;99.90;;;;;;5081458;28;20408;-64
2022/12/17 21:34:54;;;;;;;105.82;40.08;;;-2.10;99.90;;;;;;5078505;28;20040;-64
2022/12/17 21:37:19;;;;;;;105.55;40.70;;;-2.00;99.90;;;;;;5081522;28;20054;-64
2022/12/17 21:39:45;;;;;;;106.13;41.58;;;-1.90;99.90;;;;;;5054378;28;20048;-64
2022/12/17 21:44:55;;;;;;;111.35;42.38;;;-1.90;99.90;;;;;;5080865;28;20127;-64
2022/12/17 21:47:21;;;;;;;118.28;41.33;;;-1.90;99.90;;;;;;5056201;28;20112;-64
2022/12/17 21:49:46;;;;;;;122.40;43.08;;;-2.00;99.90;;;;;;5054476;28;20048;-64
2022/12/17 21:52:12;;;;;;;108.10;43.65;;;-2.10;99.90;;;;;;5056899;28;20105;-65
2022/12/17 21:54:38;;;;;;;119.13;43.45;;;-2.10;99.90;;;;;;5052495;28;20056;-64
2022/12/17 21:57:03;;;;;;;114.18;42.38;;;-2.10;99.90;;;;;;5039843;28;20048;-64
2022/12/17 21:59:29;;;;;;;115.18;42.83;;;-2.20;99.90;;;;;;5074487;28;20051;-64
2022/12/17 22:01:58;;;;;;;122.22;43.80;;;-2.10;99.90;;;;;;5077678;28;20045;-64
2022/12/17 22:04:24;;;;;;;112.68;41.97;;;-2.20;99.90;;;;;;5077918;28;20048;-64
2022/12/17 22:06:50;;;;;;;109.75;43.42;;;-2.20;99.90;;;;;;5081074;28;20037;-64
2022/12/17 22:09:15;;;;;;;104.18;39.85;;;-2.00;99.90;;;;;;5065138;28;20090;-64
2022/12/17 22:11:41;;;;;;;111.20;42.83;;;-2.00;99.90;;;;;;5063562;28;20045;-64
2022/12/17 22:14:10;;;;;;;106.68;40.85;;;-1.90;99.90;;;;;;5059321;28;20092;-64
2022/12/17 22:16:41;;;;;;;113.18;41.40;;;-1.90;99.90;;;;;;5058428;28;20044;-64
2022/12/17 22:19:14;;;;;;;108.57;41.03;;;-1.90;99.90;;;;;;5062959;28;20060;-65
2022/12/17 22:21:41;;;;;;;111.18;40.90;;;-2.00;99.90;;;;;;5063652;28;20044;-63
2022/12/17 22:24:10;;;;;;;110.53;39.30;;;-1.90;99.90;;;;;;5075411;28;20040;-67
2022/12/17 22:26:36;;;;;;;109.35;40.30;;;-1.90;99.90;;;;;;5071806;28;20531;-67
2022/12/17 22:29:02;;;;;;;110.63;40.88;;;-1.90;99.90;;;;;;5050021;28;20048;-67
2022/12/17 22:34:13;;;;;;;119.95;41.30;;;-2.00;99.90;;;;;;5066995;28;20056;-67
2022/12/17 22:36:39;;;;;;;114.97;41.40;;;-2.00;99.90;;;;;;5058276;28;20063;-67
2022/12/17 22:39:10;;;;;;;111.82;39.67;;;-2.00;99.90;;;;;;5064526;28;20056;-68
2022/12/17 22:44:22;;;;;;;106.22;37.90;;;-2.00;99.90;;;;;;5047757;28;20056;-67
2022/12/17 22:46:48;;;;;;;99.15;38.80;;;-2.10;99.90;;;;;;5048619;28;20127;-67
2022/12/17 22:49:14;;;;;;;94.38;34.17;;;-2.10;99.90;;;;;;5054904;28;20048;-67
2022/12/17 22:51:41;;;;;;;92.85;35.00;;;-2.00;99.90;;;;;;5073194;28;20048;-67
2022/12/17 22:54:07;;;;;;;93.07;35.13;;;-2.20;99.90;;;;;;5048173;28;20511;-67
2022/12/17 22:56:34;;;;;;;91.97;35.45;;;-2.20;99.90;;;;;;5066482;28;20041;-67
2022/12/17 22:59:00;;;;;;;95.85;34.25;;;-2.10;99.90;;;;;;5087901;28;20041;-67
2022/12/17 23:01:26;;;;;;;95.20;35.47;;;-2.20;99.90;;;;;;5048143;28;20051;-67
2022/12/17 23:04:00;;;;;;;99.22;35.45;;;-2.20;99.90;;;;;;5048153;28;20045;-67
2022/12/17 23:06:27;;;;;;;95.18;35.22;;;-2.20;99.90;;;;;;5051233;28;20036;-67
2022/12/17 23:08:53;;;;;;;96.72;35.05;;;-2.10;99.90;;;;;;5049597;28;20046;-67
2022/12/17 23:11:21;;;;;;;94.70;36.55;;;-2.20;99.90;;;;;;5066505;28;20464;-67
2022/12/17 23:13:47;;;;;;;101.55;36.80;;;-2.20;99.90;;;;;;5048764;28;20040;-67
2022/12/17 23:16:13;;;;;;;99.82;36.30;;;-2.30;99.90;;;;;;5052654;28;20119;-67
2022/12/17 23:18:40;;;;;;;96.82;35.38;;;-2.30;99.90;;;;;;5067700;28;20503;-67
2022/12/17 23:21:11;;;;;;;92.53;34.38;;;-2.50;99.90;;;;;;5051582;28;20052;-67
2022/12/17 23:23:37;;;;;;;106.10;36.33;;;-2.40;99.90;;;;;;5073090;28;20044;-67
2022/12/17 23:26:13;;;;;;;99.15;36.33;;;-2.60;99.90;;;;;;5063891;28;20091;-67
2022/12/17 23:28:40;;;;;;;100.60;36.78;;;-2.50;99.90;;;;;;5073979;28;20055;-67
2022/12/17 23:31:13;;;;;;;111.05;36.83;;;-2.50;99.90;;;;;;5077741;28;20076;-67
2022/12/17 23:33:40;;;;;;;101.20;38.50;;;-2.50;99.90;;;;;;5064852;28;20055;-67
2022/12/17 23:36:12;;;;;;;110.28;38.28;;;-2.50;99.90;;;;;;5064518;28;20041;-67
2022/12/17 23:38:38;;;;;;;108.95;37.90;;;-2.50;99.90;;;;;;5065616;28;20424;-67
2022/12/17 23:41:06;;;;;;;114.05;39.28;;;-2.50;99.90;;;;;;5063761;28;20059;-67
2022/12/17 23:43:32;;;;;;;97.63;35.00;;;-2.50;99.90;;;;;;5063322;28;20080;-67
2022/12/17 23:45:58;;;;;;;111.80;37.75;;;-2.60;99.90;;;;;;5061423;28;20067;-67
2022/12/17 23:48:28;;;;;;;111.25;40.17;;;-2.60;99.90;;;;;;5064685;28;20066;-67
2022/12/17 23:50:54;;;;;;;98.18;35.53;;;-2.60;99.90;;;;;;5061959;28;20100;-67
2022/12/17 23:53:20;;;;;;;88.10;31.48;;;-2.60;99.90;;;;;;5081466;28;20041;-67
2022/12/17 23:55:45;;;;;;;106.93;37.03;;;-2.50;99.90;;;;;;5061881;28;20033;-67
2022/12/17 23:58:11;;;;;;;95.05;34.05;;;-2.60;99.90;;;;;;5064159;28;20060;-67
